createdAt,value
2022-08-16T00:03:03.219Z,10.47
2022-08-16T00:05:48.278Z,6.87
2022-08-16T00:08:36.844Z,12.93
2022-08-16T00:12:00.286Z,8.82
2022-08-16T00:15:11.402Z,9.60
2022-08-16T00:18:22.090Z,6.43
2022-08-16T00:21:32.832Z,4.90
2022-08-16T00:27:41.861Z,5.53
2022-08-16T00:31:04.524Z,6.20
2022-08-16T00:34:43.392Z,20.30
2022-08-16T00:38:01.458Z,11.03
2022-08-16T00:51:40.952Z,11.50
2022-08-16T01:09:12.932Z,4.63
2022-08-16T01:12:02.333Z,9.80
2022-08-16T01:18:40.819Z,5.00
2022-08-16T01:22:48.221Z,3.97
2022-08-16T02:07:17.836Z,8.70
2022-08-16T02:26:34.476Z,7.13
2022-08-16T02:36:00.530Z,2.77
2022-08-16T02:39:16.972Z,6.07
2022-08-16T02:42:53.978Z,4.17
2022-08-16T02:45:52.632Z,9.27
2022-08-16T02:57:12.351Z,7.83
2022-08-16T03:02:47.203Z,3.20
2022-08-16T03:09:04.878Z,6.10
2022-08-16T03:12:18.221Z,6.87
2022-08-16T03:19:25.637Z,4.93
2022-08-16T03:22:56.565Z,5.10
2022-08-16T03:29:20.395Z,5.87
2022-08-16T03:32:37.942Z,5.33
2022-08-16T03:35:46.652Z,5.43
2022-08-16T03:45:13.053Z,3.73
2022-08-16T03:57:52.303Z,3.58
2022-08-16T04:01:03.427Z,3.63
2022-08-16T04:11:56.113Z,5.13
2022-08-16T04:21:29.336Z,4.90
2022-08-16T04:35:20.359Z,4.27
2022-08-16T04:45:15.789Z,4.07
2022-08-16T04:48:40.473Z,2.60
2022-08-16T04:52:02.661Z,3.50
2022-08-16T05:05:17.679Z,1.93
2022-08-16T05:08:29.353Z,4.77
2022-08-16T05:21:09.492Z,3.37
2022-08-16T05:24:32.009Z,3.10
2022-08-16T05:34:37.036Z,3.17
2022-08-16T05:38:32.493Z,3.03
2022-08-16T05:44:56.027Z,2.60
2022-08-16T05:55:16.948Z,2.13
2022-08-16T05:58:32.724Z,3.40
2022-08-16T06:09:15.066Z,3.40
2022-08-16T06:12:12.328Z,0.70
2022-08-16T06:15:19.579Z,2.90
2022-08-16T06:18:55.883Z,2.70
2022-08-16T06:22:38.800Z,0.37
2022-08-16T06:28:43.110Z,0.50
2022-08-16T06:32:43.162Z,0.45
2022-08-16T06:36:59.328Z,1.37
2022-08-16T06:41:02.062Z,1.40
2022-08-16T06:43:57.502Z,1.30
2022-08-16T06:46:55.632Z,1.07
2022-08-16T06:49:52.725Z,1.00
2022-08-16T06:52:58.271Z,0.88
2022-08-16T06:56:01.483Z,1.57
2022-08-16T06:59:00.769Z,0.70
2022-08-16T07:01:54.954Z,1.93
2022-08-16T07:09:21.730Z,1.23
2022-08-16T07:20:35.038Z,0.50
2022-08-16T07:24:06.148Z,1.20
2022-08-16T07:27:55.859Z,1.53
2022-08-16T07:31:20.811Z,2.10
2022-08-16T07:36:58.835Z,2.37
2022-08-16T07:39:33.727Z,1.43
2022-08-16T07:42:38.205Z,1.07
2022-08-16T07:45:36.373Z,1.20
2022-08-16T07:51:54.317Z,1.40
2022-08-16T07:55:01.352Z,1.23
2022-08-16T07:59:45.537Z,2.30
2022-08-16T08:02:19.812Z,2.33
2022-08-16T08:05:28.195Z,2.93
2022-08-16T08:12:10.131Z,3.30
2022-08-16T08:15:11.178Z,3.90
2022-08-16T08:18:28.890Z,5.00
2022-08-16T08:25:03.797Z,5.00
2022-08-16T08:28:23.899Z,6.13
2022-08-16T08:31:39.623Z,5.27
2022-08-16T08:37:56.685Z,6.67
2022-08-16T08:40:43.632Z,6.73
2022-08-16T08:43:43.731Z,7.87
2022-08-16T08:50:01.248Z,6.37
2022-08-16T08:52:48.215Z,4.67
2022-08-16T08:55:26.749Z,6.87
2022-08-16T08:58:22.798Z,5.33
2022-08-16T09:01:10.238Z,5.83
2022-08-16T09:04:03.254Z,9.98
2022-08-16T09:07:09.083Z,6.17
2022-08-16T09:10:22.749Z,6.47
2022-08-16T09:13:11.750Z,7.30
2022-08-16T09:16:00.243Z,6.90
2022-08-16T09:18:49.492Z,6.10
2022-08-16T09:21:38.725Z,6.47
2022-08-16T09:24:51.896Z,4.50
2022-08-16T09:27:56.516Z,6.43
2022-08-16T09:30:33.374Z,3.03
2022-08-16T09:33:21.361Z,4.07
2022-08-16T09:36:06.966Z,6.30
2022-08-16T09:38:52.587Z,5.73
2022-08-16T09:41:53.861Z,7.67
2022-08-16T09:45:10.847Z,9.23
2022-08-16T09:47:57.400Z,5.40
2022-08-16T09:51:01.760Z,5.60
2022-08-16T09:54:09.822Z,6.00
2022-08-16T09:57:19.068Z,10.57
2022-08-16T10:00:42.174Z,8.10
2022-08-16T10:03:24.417Z,7.20
2022-08-16T10:06:22.101Z,6.33
2022-08-16T10:09:25.515Z,10.90
2022-08-16T10:12:42.960Z,8.83
2022-08-16T10:15:33.572Z,7.77
2022-08-16T10:19:00.292Z,8.25
2022-08-16T10:21:29.094Z,11.43
2022-08-16T10:24:33.895Z,7.40
2022-08-16T10:27:46.083Z,19.40
2022-08-16T10:31:11.839Z,8.77
2022-08-16T10:34:30.758Z,15.70
2022-08-16T10:37:32.665Z,15.97
2022-08-16T10:40:29.097Z,18.60
2022-08-16T10:43:50.487Z,12.50
2022-08-16T10:49:32.984Z,15.13
2022-08-16T10:52:18.729Z,9.33
2022-08-16T10:58:23.664Z,11.87
2022-08-16T11:01:43.411Z,12.73
2022-08-16T11:07:53.777Z,19.17
2022-08-16T11:11:05.415Z,24.83
2022-08-16T11:14:11.050Z,20.53
2022-08-16T11:17:10.698Z,15.93
2022-08-16T11:20:41.990Z,15.73
2022-08-16T11:23:35.002Z,14.40
2022-08-16T11:26:23.632Z,12.50
2022-08-16T11:29:30.160Z,7.72
2022-08-16T11:32:31.196Z,15.37
2022-08-16T11:38:55.675Z,12.27
2022-08-16T11:42:07.661Z,10.63
2022-08-16T11:45:19.471Z,12.97
2022-08-16T11:48:11.105Z,15.10
2022-08-16T11:50:59.276Z,18.50
2022-08-16T11:56:57.046Z,12.50
2022-08-16T11:59:51.273Z,11.27
2022-08-16T12:02:32.595Z,11.33
2022-08-16T12:05:15.524Z,12.83
2022-08-16T12:08:05.267Z,11.80
2022-08-16T12:10:59.358Z,14.47
2022-08-16T12:16:48.806Z,9.50
2022-08-16T12:19:46.184Z,11.50
2022-08-16T12:22:27.914Z,8.33
2022-08-16T12:31:22.462Z,6.50
2022-08-16T12:34:02.914Z,7.00
2022-08-16T12:36:43.681Z,7.47
2022-08-16T12:39:22.450Z,7.70
2022-08-16T12:42:08.455Z,6.63
2022-08-16T12:44:55.980Z,13.27
2022-08-16T12:48:15.895Z,12.17
2022-08-16T12:50:58.736Z,11.30
2022-08-16T12:54:03.643Z,12.83
2022-08-16T12:56:47.414Z,11.93
2022-08-16T12:59:38.545Z,10.03
2022-08-16T13:02:33.772Z,18.53
2022-08-16T13:05:25.797Z,11.63
2022-08-16T13:10:52.564Z,11.93
2022-08-16T13:13:34.650Z,8.33
2022-08-16T13:16:35.356Z,10.43
2022-08-16T13:22:18.686Z,8.10
2022-08-16T13:25:07.375Z,15.27
2022-08-16T13:28:14.638Z,22.48
2022-08-16T13:31:08.063Z,13.43
2022-08-16T13:33:58.521Z,51.33
2022-08-16T13:36:48.655Z,47.07
2022-08-16T13:39:27.921Z,50.90
2022-08-16T13:42:29.958Z,29.23
2022-08-16T13:45:06.952Z,52.40
2022-08-16T13:47:45.330Z,20.60
2022-08-16T13:50:51.323Z,24.20
2022-08-16T13:53:42.269Z,18.48
2022-08-16T13:56:39.708Z,14.57
2022-08-16T13:59:21.312Z,27.90
2022-08-16T14:02:08.670Z,21.40
2022-08-16T14:04:59.580Z,35.77
2022-08-16T14:08:07.341Z,34.40
2022-08-16T14:10:49.048Z,19.00
2022-08-16T14:13:38.040Z,22.40
2022-08-16T14:16:33.602Z,19.40
2022-08-16T14:19:23.396Z,41.33
2022-08-16T14:22:31.436Z,38.77
2022-08-16T14:25:20.261Z,46.77
2022-08-16T14:28:10.617Z,45.60
2022-08-16T14:30:56.245Z,34.67
2022-08-16T14:33:41.961Z,30.83
2022-08-16T14:36:35.038Z,17.80
2022-08-16T14:39:32.269Z,19.53
2022-08-16T14:42:36.811Z,18.63
2022-08-16T14:48:30.781Z,14.40
2022-08-16T14:51:32.813Z,10.40
2022-08-16T14:54:11.222Z,9.63
2022-08-16T14:56:54.898Z,9.13
2022-08-16T14:59:46.323Z,8.80
2022-08-16T15:02:40.543Z,6.93
2022-08-16T15:05:26.514Z,7.27
2022-08-16T15:08:11.565Z,8.25
2022-08-16T15:10:53.057Z,8.37
2022-08-16T15:13:35.729Z,10.77
2022-08-16T15:16:18.217Z,11.83
2022-08-16T15:19:05.142Z,12.73
2022-08-16T15:21:55.514Z,13.43
2022-08-16T15:24:44.684Z,9.47
2022-08-16T15:27:35.853Z,13.00
2022-08-16T15:30:58.410Z,12.17
2022-08-16T15:33:58.356Z,16.03
2022-08-16T15:37:07.991Z,17.90
2022-08-16T15:39:56.108Z,10.30
2022-08-16T15:42:54.146Z,18.93
2022-08-16T15:45:59.683Z,19.70
2022-08-16T15:48:40.689Z,16.97
2022-08-16T15:51:22.648Z,12.87
2022-08-16T15:57:10.973Z,17.80
2022-08-16T16:00:05.012Z,21.43
2022-08-16T16:02:59.985Z,11.27
2022-08-16T16:08:31.475Z,13.13
2022-08-16T16:11:40.218Z,12.10
2022-08-16T16:14:35.051Z,9.30
2022-08-16T16:17:22.153Z,14.17
2022-08-16T16:20:17.129Z,7.97
2022-08-16T16:22:53.555Z,11.63
2022-08-16T16:25:39.393Z,11.30
2022-08-16T16:29:05.799Z,8.47
2022-08-16T16:31:28.202Z,8.13
2022-08-16T16:34:12.244Z,10.07
2022-08-16T16:36:57.095Z,10.70
2022-08-16T16:39:48.585Z,10.77
2022-08-16T16:42:49.051Z,10.97
2022-08-16T16:45:55.145Z,9.60
2022-08-16T16:48:49.925Z,11.53
2022-08-16T16:51:40.745Z,9.90
2022-08-16T17:00:29.703Z,13.00
2022-08-16T17:03:25.289Z,15.57
2022-08-16T17:06:09.407Z,14.93
2022-08-16T17:08:52.548Z,14.67
2022-08-16T17:11:37.391Z,11.70
2022-08-16T17:17:22.847Z,10.27
2022-08-16T17:20:29.077Z,15.40
2022-08-16T17:23:09.205Z,11.10
2022-08-16T17:28:58.256Z,15.60
2022-08-16T17:31:41.084Z,17.47
2022-08-16T17:37:22.122Z,16.63
2022-08-16T17:40:41.117Z,15.60
2022-08-16T17:43:21.426Z,11.63
2022-08-16T17:46:41.350Z,11.70
2022-08-16T17:49:26.170Z,13.87
2022-08-16T17:52:17.619Z,13.07
2022-08-16T17:55:09.150Z,13.67
2022-08-16T17:57:52.294Z,19.97
2022-08-16T18:00:34.112Z,14.10
2022-08-16T18:04:02.481Z,11.63
2022-08-16T18:09:25.562Z,11.57
2022-08-16T18:12:50.840Z,13.33
2022-08-16T18:15:34.199Z,13.93
2022-08-16T18:18:29.565Z,14.20
2022-08-16T18:21:36.209Z,12.13
2022-08-16T18:24:22.071Z,17.30
2022-08-16T18:27:05.338Z,13.30
2022-08-16T18:30:20.602Z,15.43
2022-08-16T18:33:15.559Z,15.73
2022-08-16T18:36:20.807Z,15.37
2022-08-16T18:39:06.874Z,13.40
2022-08-16T18:42:06.381Z,12.30
2022-08-16T18:44:53.981Z,13.83
2022-08-16T18:47:55.919Z,14.47
2022-08-16T18:53:32.392Z,13.97
2022-08-16T18:56:53.812Z,12.13
2022-08-16T18:59:51.880Z,14.37
2022-08-16T19:02:58.512Z,14.33
2022-08-16T19:05:42.230Z,11.80
2022-08-16T19:08:22.114Z,12.93
2022-08-16T19:11:16.580Z,11.93
2022-08-16T19:14:08.606Z,14.90
2022-08-16T19:16:57.494Z,9.57
2022-08-16T19:23:02.007Z,12.02
2022-08-16T19:25:53.110Z,12.23
2022-08-16T19:28:58.145Z,8.53
2022-08-16T19:31:54.366Z,9.87
2022-08-16T19:34:34.891Z,11.10
2022-08-16T19:37:10.472Z,9.23
2022-08-16T19:40:36.992Z,9.27
2022-08-16T19:46:04.164Z,8.27
2022-08-16T19:48:45.154Z,8.30
2022-08-16T19:51:23.179Z,9.90
2022-08-16T19:54:00.449Z,10.73
2022-08-16T19:57:09.740Z,7.87
2022-08-16T20:00:12.036Z,8.37
2022-08-16T20:03:05.464Z,11.43
2022-08-16T20:05:46.165Z,9.87
2022-08-16T20:08:31.976Z,7.97
2022-08-16T20:11:10.078Z,9.13
2022-08-16T20:13:55.708Z,9.70
2022-08-16T20:16:32.342Z,8.70
2022-08-16T20:19:20.228Z,9.60
2022-08-16T20:22:09.086Z,7.37
2022-08-16T20:24:45.925Z,7.75
2022-08-16T20:30:59.125Z,9.50
2022-08-16T20:33:38.437Z,10.97
2022-08-16T20:36:16.063Z,7.70
2022-08-16T20:39:00.781Z,6.57
2022-08-16T20:41:41.563Z,9.27
2022-08-16T20:44:36.846Z,9.50
2022-08-16T20:47:25.264Z,8.20
2022-08-16T20:50:08.323Z,6.50
2022-08-16T20:52:54.924Z,9.50
2022-08-16T20:55:43.717Z,6.57
2022-08-16T20:58:29.809Z,6.50
2022-08-16T21:01:16.375Z,8.70
2022-08-16T21:04:00.612Z,7.03
2022-08-16T21:07:03.054Z,7.40
2022-08-16T21:09:49.548Z,6.43
2022-08-16T21:12:37.848Z,7.77
2022-08-16T21:15:15.036Z,6.20
2022-08-16T21:17:57.547Z,7.50
2022-08-16T21:20:44.996Z,8.83
2022-08-16T21:26:55.589Z,11.33
2022-08-16T21:32:34.947Z,17.70
2022-08-16T21:35:21.392Z,7.20
2022-08-16T21:38:28.876Z,5.70
2022-08-16T21:41:27.241Z,11.40
2022-08-16T21:44:38.578Z,5.37
2022-08-16T21:47:27.376Z,6.87
2022-08-16T21:50:11.748Z,6.63
2022-08-16T21:52:50.162Z,4.03
2022-08-16T21:55:40.084Z,3.63
2022-08-16T21:58:53.187Z,5.53
2022-08-16T22:01:40.983Z,7.70
2022-08-16T22:04:39.121Z,6.17
2022-08-16T22:07:30.364Z,3.85
2022-08-16T22:11:06.477Z,3.70
2022-08-16T22:16:40.311Z,5.97
2022-08-16T22:19:17.829Z,3.03
2022-08-16T22:24:41.557Z,3.27
2022-08-16T22:27:31.115Z,3.87
2022-08-16T22:30:13.793Z,3.80
2022-08-16T22:33:10.673Z,2.57
2022-08-16T22:36:04.509Z,4.27
2022-08-16T22:38:57.447Z,4.33
2022-08-16T22:41:41.010Z,4.07
2022-08-16T22:44:32.577Z,7.53
2022-08-16T22:47:46.860Z,2.57
2022-08-16T22:50:38.176Z,4.27
2022-08-16T22:53:32.385Z,3.53
2022-08-16T22:56:21.721Z,3.13
2022-08-16T22:59:02.619Z,3.90
2022-08-16T23:01:41.697Z,2.77
2022-08-16T23:04:29.051Z,3.30
2022-08-16T23:07:21.221Z,3.50
2022-08-16T23:10:18.020Z,5.30
2022-08-16T23:13:05.262Z,2.97
2022-08-16T23:15:56.590Z,3.30
2022-08-16T23:18:40.947Z,4.87
2022-08-16T23:21:35.641Z,2.43
2022-08-16T23:24:56.000Z,2.70
2022-08-16T23:27:54.664Z,3.17
2022-08-16T23:30:38.949Z,8.23
2022-08-16T23:33:43.531Z,3.73
2022-08-16T23:36:24.349Z,5.70
2022-08-16T23:39:33.091Z,5.50
2022-08-16T23:42:12.121Z,3.40
2022-08-16T23:47:46.130Z,5.07
